Sabana de la Mar, Dominican Republic

2:10 AM AST on February 23, 2017 (GMT -0400)
Marina Puerto Bahia | | Change Station

Elev 105 ft 19.20 °N, 69.35 °W | Updated 7 seconds ago

Clear
Clear
92.3 °F
Feels Like 89 °F
N
1.8
Wind Variable Wind from NE
Gusts 2.5 mph

Today
High -- | Low -- °F
--% Chance of Precip.
Yesterday
High -- | Low -- °F
Precip. -- in
Pressure 29.86 in
Visibility 6.2 miles
Clouds Scattered Clouds 1800 ft
Heat Index 89 °F
Dew Point 47 °F
Humidity 21%
Rainfall 0.00 in
Snow Depth Not available.
7:00 AM 6:41 PM
Waning Crescent, 12% visible
METAR MDSD 230600Z 07004KT 9999 SCT018 21/19 Q1011
Pressure 29.86 in
Visibility 6.2 miles
Clouds Scattered Clouds 1800 ft
Heat Index 89 °F
Dew Point 47 °F
Humidity 21%
Rainfall 0.00 in
Snow Depth Not available.
7:00 AM 6:41 PM
Waning Crescent, 12% visible
METAR MDSD 230600Z 07004KT 9999 SCT018 21/19 Q1011

Get Your Daily Forecast Email!

Thanks for signing up!

Be on the lookout for a verification email in your inbox.

You'll start receiving the daily forecast at 8 AM.

×

10-Day Weather Forecast

No radar image for this location.
×

Almanac

Astronomy

Feb. 23, 2017 Rise Set
Actual Time
Civil Twilight
Nautical Twilight
Astronomical Twilight
Moon
Length of Visible Light
Length of Day
Tomorrow will be .
, % of the Moon is Illuminated

Today's Extremes

Country Highs Country Lows

Community

WunderPhotos

Upload Photos

1,962,540 photos uploaded!

WunderBlog® & News

Nearby

Air Quality

  Air Quality AQ Index Pollutant
Not available.

Snow Depth

Station Depth Elevation

Earthquake Activity

City Distance Mag. Time & Date
Minimum magnitude displayed is 2.5.

Coastal Water Temperatures

Place Temperature

Stations

Nearby Weather Stations

Station Location Temp. Windchill Dew Point Humidity Wind Precip. Elev Updated Type